createdAt,value
2022-12-20T00:00:44.000Z,9.4
2022-12-20T00:02:01.000Z,7.7
2022-12-20T00:03:17.000Z,6.9
2022-12-20T00:04:33.000Z,6.1
2022-12-20T00:05:49.000Z,6
2022-12-20T00:07:06.000Z,7
2022-12-20T00:08:22.000Z,9
2022-12-20T00:09:38.000Z,8.8
2022-12-20T00:10:55.000Z,8.1
2022-12-20T00:12:11.000Z,6.8
2022-12-20T00:13:27.000Z,5.1
2022-12-20T00:14:43.000Z,5.9
2022-12-20T00:16:00.000Z,8.6
2022-12-20T00:17:15.000Z,5.8
2022-12-20T00:18:31.000Z,7.2
2022-12-20T00:19:48.000Z,5
2022-12-20T00:21:04.000Z,6.5
2022-12-20T00:22:20.000Z,7.7
2022-12-20T00:23:36.000Z,10
2022-12-20T00:24:53.000Z,6.3
2022-12-20T00:26:08.860Z,11.8
2022-12-20T00:27:23.000Z,5.5
2022-12-20T00:28:40.000Z,6
2022-12-20T00:29:55.000Z,6
2022-12-20T00:31:10.000Z,7.8
2022-12-20T00:32:27.000Z,7.8
2022-12-20T00:33:43.000Z,4.8
2022-12-20T00:34:59.919Z,6.9
2022-12-20T00:36:15.000Z,9.2
2022-12-20T00:37:32.000Z,7.1
2022-12-20T00:38:48.883Z,5.7
2022-12-20T00:40:04.000Z,6.8
2022-12-20T00:41:21.000Z,4.6
2022-12-20T00:42:37.000Z,7.8
2022-12-20T00:43:53.000Z,5.6
2022-12-20T00:45:09.000Z,5.9
2022-12-20T00:46:26.000Z,5.9
2022-12-20T00:47:41.802Z,6.7
2022-12-20T00:48:57.000Z,4.6
2022-12-20T00:50:14.000Z,6.1
2022-12-20T00:51:30.000Z,6
2022-12-20T00:52:46.000Z,7.2
2022-12-20T00:54:03.249Z,6.1
2022-12-20T00:55:19.000Z,6.6
2022-12-20T00:56:35.000Z,6
2022-12-20T00:57:51.000Z,5.8
2022-12-20T00:59:08.393Z,6
2022-12-20T01:00:24.000Z,4.4
2022-12-20T01:01:40.000Z,8
2022-12-20T01:02:57.000Z,6.3
2022-12-20T01:04:13.000Z,5.3
2022-12-20T01:05:28.000Z,7.3
2022-12-20T01:06:44.000Z,6.5
2022-12-20T01:08:01.000Z,5
2022-12-20T01:09:17.000Z,5.4
2022-12-20T01:10:33.000Z,4.8
2022-12-20T01:11:50.000Z,6.5
2022-12-20T01:13:06.000Z,3.9
2022-12-20T01:14:22.000Z,4.8
2022-12-20T01:15:38.000Z,5
2022-12-20T01:16:55.000Z,6.7
2022-12-20T01:18:11.000Z,6.2
2022-12-20T01:19:27.000Z,5.8
2022-12-20T01:20:44.000Z,5.5
2022-12-20T01:21:59.000Z,4.8
2022-12-20T01:23:15.000Z,5.3
2022-12-20T01:24:31.000Z,5.3
2022-12-20T01:25:48.477Z,6.8
2022-12-20T01:27:04.000Z,4.8
2022-12-20T01:28:20.000Z,4.9
2022-12-20T01:29:37.000Z,6
2022-12-20T01:30:53.000Z,5.3
2022-12-20T01:32:09.000Z,4.7
2022-12-20T01:33:25.000Z,6.4
2022-12-20T01:34:42.000Z,7.9
2022-12-20T01:35:58.000Z,5.7
2022-12-20T01:37:14.000Z,7.4
2022-12-20T01:38:30.000Z,4.3
2022-12-20T01:39:46.000Z,5.5
2022-12-20T01:41:02.000Z,7
2022-12-20T01:42:18.000Z,3.8
2022-12-20T01:43:35.000Z,8.4
2022-12-20T01:44:51.000Z,4.8
2022-12-20T01:46:07.000Z,6.4
2022-12-20T01:47:24.000Z,4.5
2022-12-20T01:48:40.000Z,5.3
2022-12-20T01:49:56.938Z,4.2
2022-12-20T01:51:12.000Z,4.2
2022-12-20T01:52:29.000Z,4.6
2022-12-20T01:53:45.000Z,4.6
2022-12-20T01:55:00.000Z,3.5
2022-12-20T01:56:17.000Z,4.3
2022-12-20T01:57:33.000Z,5.2
2022-12-20T01:58:49.983Z,4.7
2022-12-20T02:00:06.000Z,7.3
2022-12-20T02:01:22.528Z,4.3
2022-12-20T02:02:38.000Z,4.5
2022-12-20T02:03:54.000Z,5.1
2022-12-20T02:05:11.000Z,4.5
2022-12-20T02:06:27.000Z,4.7
2022-12-20T02:07:43.000Z,4.2
2022-12-20T02:09:00.000Z,5.1
2022-12-20T02:10:16.000Z,4.8
2022-12-20T02:11:31.000Z,6.8
2022-12-20T02:12:47.000Z,6.7
2022-12-20T02:14:04.000Z,2.7
2022-12-20T02:15:20.000Z,5.1
2022-12-20T02:16:37.021Z,5.6
2022-12-20T02:17:53.000Z,4
2022-12-20T02:19:09.000Z,4
2022-12-20T02:20:25.000Z,3
2022-12-20T02:21:41.000Z,7.1
2022-12-20T02:22:58.000Z,3.2
2022-12-20T02:24:14.000Z,7.6
2022-12-20T02:25:30.000Z,4.3
2022-12-20T02:26:47.000Z,4.4
2022-12-20T02:28:02.000Z,4.1
2022-12-20T02:29:18.902Z,6.1
2022-12-20T02:30:34.000Z,4.1
2022-12-20T02:31:51.000Z,4.3
2022-12-20T02:33:07.744Z,3.6
2022-12-20T02:34:23.000Z,2.7
2022-12-20T02:35:40.000Z,3.5
2022-12-20T02:36:56.000Z,4.6
2022-12-20T02:38:12.000Z,6.6
2022-12-20T02:39:28.000Z,4.1
2022-12-20T02:40:45.000Z,2.7
2022-12-20T02:42:01.000Z,3.8
2022-12-20T02:43:17.000Z,2.7
2022-12-20T02:44:33.000Z,3.8
2022-12-20T02:45:49.000Z,4.2
2022-12-20T02:47:05.000Z,3.3
2022-12-20T02:48:21.000Z,3.3
2022-12-20T02:49:38.000Z,4.3
2022-12-20T02:50:54.000Z,3.4
2022-12-20T02:52:10.000Z,6.3
2022-12-20T02:53:27.000Z,3.3
2022-12-20T02:54:43.000Z,3.8
2022-12-20T02:55:59.000Z,5.3
2022-12-20T02:57:15.000Z,2.8
2022-12-20T02:58:32.000Z,2.8
2022-12-20T02:59:48.000Z,5.1
2022-12-20T03:01:03.000Z,4.8
2022-12-20T03:02:20.000Z,4
2022-12-20T03:03:36.000Z,3.1
2022-12-20T03:04:52.000Z,5
2022-12-20T03:06:09.000Z,3.9
2022-12-20T03:07:25.559Z,7.8
2022-12-20T03:08:41.000Z,4.9
2022-12-20T03:09:57.000Z,3.9
2022-12-20T03:11:14.000Z,4.6
2022-12-20T03:12:30.000Z,10.2
2022-12-20T03:13:46.000Z,3.5
2022-12-20T03:15:03.000Z,7.4
2022-12-20T03:16:19.000Z,5.1
2022-12-20T03:17:34.000Z,2.5
2022-12-20T03:18:50.000Z,6
2022-12-20T03:20:07.450Z,3.3
2022-12-20T03:21:23.000Z,4.6
2022-12-20T03:22:39.000Z,4.6
2022-12-20T03:23:56.000Z,4.1
2022-12-20T03:25:12.000Z,3
2022-12-20T03:26:28.000Z,3
2022-12-20T03:27:44.000Z,4.4
2022-12-20T03:29:00.478Z,7.1
2022-12-20T03:30:16.000Z,4.4
2022-12-20T03:31:32.000Z,2.4
2022-12-20T03:32:49.000Z,3.8
2022-12-20T03:34:05.000Z,6.3
2022-12-20T03:35:21.908Z,3.6
2022-12-20T03:36:37.000Z,6.4
2022-12-20T03:37:54.000Z,5.3
2022-12-20T03:39:10.000Z,4.5
2022-12-20T03:40:26.000Z,5.3
2022-12-20T03:41:43.000Z,4.5
2022-12-20T03:42:59.000Z,2.7
2022-12-20T03:44:15.000Z,4.6
2022-12-20T03:45:31.220Z,4.1
2022-12-20T03:46:47.000Z,3.9
2022-12-20T03:48:03.000Z,6.1
2022-12-20T03:49:19.000Z,3.6
2022-12-20T03:50:36.000Z,5.2
2022-12-20T03:51:52.000Z,4.2
2022-12-20T03:53:08.000Z,6.1
2022-12-20T03:54:24.000Z,6.1
2022-12-20T03:55:41.000Z,5.6
2022-12-20T03:56:57.000Z,2.9
2022-12-20T03:58:14.108Z,4.6
2022-12-20T03:59:30.000Z,5.1
2022-12-20T04:00:46.000Z,2.6
2022-12-20T04:02:01.991Z,3.3
2022-12-20T04:03:18.000Z,7.6
2022-12-20T04:04:34.000Z,5.9
2022-12-20T04:05:50.000Z,4.2
2022-12-20T04:07:06.000Z,5.4
2022-12-20T04:08:23.000Z,5.1
2022-12-20T04:09:39.000Z,4.3
2022-12-20T04:10:55.982Z,4.4
2022-12-20T04:12:12.000Z,5.5
2022-12-20T04:13:28.000Z,5
2022-12-20T04:14:44.000Z,5.6
2022-12-20T04:16:00.000Z,4.4
2022-12-20T04:17:17.000Z,3.9
2022-12-20T04:18:32.000Z,5.7
2022-12-20T04:19:48.000Z,6.2
2022-12-20T04:21:05.000Z,5.4
2022-12-20T04:22:21.000Z,3.9
2022-12-20T04:23:37.000Z,4.7
2022-12-20T04:24:53.000Z,3.9
2022-12-20T04:26:10.000Z,4.4
2022-12-20T04:27:26.000Z,7.7
2022-12-20T04:28:42.000Z,4.6
2022-12-20T04:29:59.000Z,5.6
2022-12-20T04:31:15.000Z,7
2022-12-20T04:32:31.000Z,3.3
2022-12-20T04:33:47.000Z,3.6
2022-12-20T04:35:03.000Z,5.7
2022-12-20T04:36:19.000Z,6.6
2022-12-20T04:37:35.000Z,4.5
2022-12-20T04:38:52.000Z,4.5
2022-12-20T04:40:08.000Z,3.8
2022-12-20T04:41:24.000Z,6.8
2022-12-20T04:42:40.000Z,4.2
2022-12-20T04:43:57.000Z,6.2
2022-12-20T04:45:13.000Z,5.5
2022-12-20T04:46:29.000Z,5.7
2022-12-20T04:47:46.000Z,3.7
2022-12-20T04:49:02.654Z,5.5
2022-12-20T04:50:18.000Z,4.4
2022-12-20T04:51:33.000Z,5.1
2022-12-20T04:52:49.000Z,6.1
2022-12-20T04:54:05.000Z,4.7
2022-12-20T04:55:21.000Z,8.5
2022-12-20T04:56:37.000Z,8.8
2022-12-20T04:57:52.000Z,4.7
2022-12-20T04:59:08.000Z,5
2022-12-20T05:00:25.000Z,7.3
2022-12-20T05:01:41.000Z,4
2022-12-20T05:02:57.000Z,5.5
2022-12-20T05:04:13.000Z,6.1
2022-12-20T05:05:30.000Z,7.9
2022-12-20T05:06:46.000Z,6.4
2022-12-20T05:08:02.000Z,8.2
2022-12-20T05:09:19.000Z,5.1
2022-12-20T05:10:35.000Z,3.7
2022-12-20T05:11:51.000Z,4.1
2022-12-20T05:13:08.188Z,6.7
2022-12-20T05:14:23.000Z,5.5
2022-12-20T05:15:39.000Z,3.7
2022-12-20T05:16:55.000Z,6
2022-12-20T05:18:12.000Z,5.7
2022-12-20T05:19:28.000Z,4.4
2022-12-20T05:20:44.000Z,6
2022-12-20T05:22:01.381Z,6.2
2022-12-20T05:23:17.000Z,7.3
2022-12-20T05:24:33.000Z,7
2022-12-20T05:25:50.068Z,3.3
2022-12-20T05:28:22.000Z,6.9
2022-12-20T05:29:38.000Z,4.6
2022-12-20T05:30:53.000Z,4.5
2022-12-20T05:32:10.276Z,5.2
2022-12-20T05:33:26.000Z,5.2
2022-12-20T05:34:42.000Z,7.1
2022-12-20T05:35:59.000Z,5.9
2022-12-20T05:37:15.000Z,6.3
2022-12-20T05:38:31.000Z,6.9
2022-12-20T05:39:48.238Z,6.8
2022-12-20T05:41:04.000Z,3.3
2022-12-20T05:42:20.000Z,7.9
2022-12-20T05:43:36.000Z,5.2
2022-12-20T05:44:53.000Z,4.4
2022-12-20T05:46:09.000Z,5.5
2022-12-20T05:47:24.000Z,5.6
2022-12-20T05:48:41.000Z,4.2
2022-12-20T05:49:57.000Z,4.4
2022-12-20T05:51:13.000Z,6.9
2022-12-20T05:52:30.149Z,5.6
2022-12-20T05:53:46.000Z,6.7
2022-12-20T05:55:02.000Z,5.7
2022-12-20T05:56:18.000Z,3.7
2022-12-20T05:57:35.000Z,5.8
2022-12-20T05:58:51.000Z,4.5
2022-12-20T06:00:07.851Z,4.7
2022-12-20T06:01:23.000Z,7.5
2022-12-20T06:02:40.000Z,4.6
2022-12-20T06:03:55.000Z,4.1
2022-12-20T06:05:10.000Z,5.3
2022-12-20T06:06:26.000Z,6.9
2022-12-20T06:07:42.000Z,7.3
2022-12-20T06:08:58.000Z,7
2022-12-20T06:10:14.000Z,7.7
2022-12-20T06:11:31.000Z,3.6
2022-12-20T06:12:46.000Z,4
2022-12-20T06:14:01.000Z,6.1
2022-12-20T06:15:18.000Z,3.5
2022-12-20T06:16:34.000Z,5.2
2022-12-20T06:17:50.000Z,5.4
2022-12-20T06:19:07.000Z,5.6
2022-12-20T06:20:23.000Z,4.8
2022-12-20T06:21:39.000Z,5.9
2022-12-20T06:22:55.000Z,6.2
2022-12-20T06:24:12.000Z,6.8
2022-12-20T06:25:28.000Z,3.5
2022-12-20T06:26:44.000Z,9
2022-12-20T06:28:01.000Z,7
2022-12-20T06:29:17.000Z,6.7
2022-12-20T06:30:32.887Z,6.8
2022-12-20T06:31:48.000Z,7.3
2022-12-20T06:33:05.000Z,4.4
2022-12-20T06:34:21.000Z,11.1
2022-12-20T06:35:37.000Z,10
2022-12-20T06:36:54.000Z,5.3
2022-12-20T06:38:10.000Z,6.4
2022-12-20T06:39:26.000Z,4.5
2022-12-20T06:40:42.000Z,5.6
2022-12-20T06:41:59.000Z,5.8
2022-12-20T06:43:15.000Z,5.6
2022-12-20T06:44:31.000Z,5.7
2022-12-20T06:45:48.000Z,4.6
2022-12-20T06:47:03.000Z,6.1
2022-12-20T06:48:19.000Z,7
2022-12-20T06:49:35.000Z,7.5
2022-12-20T06:50:52.000Z,3.3
2022-12-20T06:52:08.000Z,5.2
2022-12-20T06:53:24.000Z,6.3
2022-12-20T06:54:41.000Z,3.9
2022-12-20T06:55:57.000Z,6.9
2022-12-20T06:57:13.000Z,4.6
2022-12-20T06:58:29.000Z,7.4
2022-12-20T06:59:46.548Z,12.1
2022-12-20T07:01:02.000Z,6.5
2022-12-20T07:02:18.000Z,6.4
2022-12-20T07:03:34.000Z,5.3
2022-12-20T07:04:50.000Z,4.7
2022-12-20T07:06:06.000Z,3.6
2022-12-20T07:07:22.000Z,4.5
2022-12-20T07:08:39.000Z,6.3
2022-12-20T07:09:55.000Z,7.5
2022-12-20T07:11:11.000Z,5.4
2022-12-20T07:12:27.000Z,5.2
2022-12-20T07:13:43.000Z,5.5
2022-12-20T07:15:00.000Z,5.7
2022-12-20T07:16:16.000Z,3.8
2022-12-20T07:17:32.000Z,6.3
2022-12-20T07:18:48.000Z,10.7
2022-12-20T07:20:04.000Z,5.7
2022-12-20T07:22:36.000Z,5.8
2022-12-20T07:23:52.000Z,7.5
2022-12-20T07:25:09.000Z,7.4
2022-12-20T07:26:25.000Z,6.1
2022-12-20T07:27:41.000Z,5.4
2022-12-20T07:28:57.000Z,5.3
2022-12-20T07:30:14.000Z,5.1
2022-12-20T07:31:30.000Z,5.3
2022-12-20T07:32:46.000Z,4.4
2022-12-20T07:34:02.000Z,7.9
2022-12-20T07:35:18.000Z,5.8
2022-12-20T07:36:34.000Z,7.2
2022-12-20T07:37:50.000Z,5.2
2022-12-20T07:39:06.000Z,5.6
2022-12-20T07:40:22.000Z,8.4
2022-12-20T07:41:39.000Z,7.5
2022-12-20T07:42:55.000Z,5.4
2022-12-20T07:44:10.000Z,6.4
2022-12-20T07:45:26.000Z,5.3
2022-12-20T07:46:43.000Z,7.5
2022-12-20T07:47:59.000Z,4.5
2022-12-20T07:49:15.000Z,6.6
2022-12-20T07:50:31.000Z,7.3
2022-12-20T07:51:48.000Z,9.3
2022-12-20T07:53:04.000Z,9.5
2022-12-20T07:54:20.000Z,7.7
2022-12-20T07:55:36.000Z,9.4
2022-12-20T07:56:52.000Z,5.1
2022-12-20T07:58:09.000Z,5.8
2022-12-20T07:59:25.681Z,8.3
2022-12-20T08:00:40.929Z,8.2
2022-12-20T08:01:56.000Z,10.1
2022-12-20T08:03:13.373Z,8.3
2022-12-20T08:04:29.000Z,6.5
2022-12-20T08:05:45.000Z,5.2
2022-12-20T08:07:01.000Z,5.5
2022-12-20T08:08:18.000Z,7.2
2022-12-20T08:09:34.000Z,5.6
2022-12-20T08:10:50.000Z,6.6
2022-12-20T08:13:22.000Z,5.1
2022-12-20T08:14:39.000Z,5.7
2022-12-20T08:15:55.000Z,5.4
2022-12-20T08:17:10.000Z,7.9
2022-12-20T08:18:26.000Z,6.4
2022-12-20T08:19:43.000Z,4.9
2022-12-20T08:20:59.000Z,7.5
2022-12-20T08:22:15.000Z,9.2
2022-12-20T08:23:31.000Z,7.4
2022-12-20T08:24:48.000Z,6.1
2022-12-20T08:26:04.000Z,7.6
2022-12-20T08:27:20.000Z,7.7
2022-12-20T08:28:36.000Z,5.5
2022-12-20T08:29:53.000Z,6.4
2022-12-20T08:31:09.000Z,7.3
2022-12-20T08:32:25.000Z,7.3
2022-12-20T08:33:40.000Z,5.1
2022-12-20T08:34:56.000Z,5
2022-12-20T08:36:13.000Z,6.4
2022-12-20T08:37:29.000Z,4.6
2022-12-20T08:38:45.000Z,5
2022-12-20T08:40:01.000Z,7.5
2022-12-20T08:41:18.000Z,7.5
2022-12-20T08:42:34.000Z,4.4
2022-12-20T08:43:50.000Z,9.6
2022-12-20T08:45:06.000Z,5.4
2022-12-20T08:46:23.352Z,3.8
2022-12-20T08:47:39.657Z,5
2022-12-20T08:48:55.000Z,6
2022-12-20T08:50:11.076Z,5.1
2022-12-20T08:51:27.000Z,8.3
2022-12-20T08:52:43.000Z,6.5
2022-12-20T08:53:59.000Z,9.1
2022-12-20T08:55:15.000Z,4.9
2022-12-20T08:56:31.000Z,4.7
2022-12-20T08:57:48.000Z,5.4
2022-12-20T08:59:04.000Z,5.4
2022-12-20T09:00:20.000Z,6.1
2022-12-20T09:01:36.000Z,6.4
2022-12-20T09:02:53.000Z,6.9
2022-12-20T09:04:09.000Z,5.6
2022-12-20T09:05:25.000Z,4
2022-12-20T09:06:40.000Z,6.8
2022-12-20T09:07:57.000Z,4.9
2022-12-20T09:09:13.000Z,3.6
2022-12-20T09:10:29.000Z,5
2022-12-20T09:11:45.000Z,6.1
2022-12-20T09:13:02.000Z,4.1
2022-12-20T09:14:18.000Z,4.6
2022-12-20T09:15:34.000Z,4.5
2022-12-20T09:16:50.000Z,5.2
2022-12-20T09:18:06.000Z,9.1
2022-12-20T09:19:23.425Z,6
2022-12-20T09:20:39.000Z,6.8
2022-12-20T09:21:55.000Z,6.6
2022-12-20T09:23:10.000Z,6
2022-12-20T09:24:27.000Z,6.4
2022-12-20T09:25:43.000Z,4
2022-12-20T09:26:59.000Z,5.2
2022-12-20T09:28:15.000Z,7.7
2022-12-20T09:29:32.000Z,5.7
2022-12-20T09:30:48.000Z,3.7
2022-12-20T09:32:04.000Z,6.1
2022-12-20T09:33:20.000Z,5.9
2022-12-20T09:34:37.000Z,5.5
2022-12-20T09:35:53.000Z,6.4
2022-12-20T09:37:09.000Z,5.4
2022-12-20T09:38:25.000Z,4.8
2022-12-20T09:39:41.210Z,3.9
2022-12-20T09:40:57.436Z,4.9
2022-12-20T09:42:13.000Z,4.8
2022-12-20T09:43:29.000Z,7.1
2022-12-20T09:44:45.000Z,4.9
2022-12-20T09:46:02.000Z,6.6
2022-12-20T09:47:18.629Z,6.2
2022-12-20T09:48:34.000Z,5.6
2022-12-20T09:49:50.000Z,4.8
2022-12-20T09:51:07.000Z,3.8
2022-12-20T09:52:23.000Z,7.5
2022-12-20T09:53:39.000Z,4.2
2022-12-20T09:54:55.000Z,6.6
2022-12-20T09:56:11.234Z,5.6
2022-12-20T09:57:27.000Z,5
2022-12-20T09:58:43.000Z,11.1
2022-12-20T09:59:59.000Z,7.9
2022-12-20T10:01:15.000Z,6.8
2022-12-20T10:02:32.000Z,5.8
2022-12-20T10:03:48.000Z,4.8
2022-12-20T10:05:04.000Z,8.9
2022-12-20T10:06:20.000Z,5.2
2022-12-20T10:07:37.000Z,2.6
2022-12-20T10:10:09.000Z,11.4
2022-12-20T10:11:25.000Z,7
2022-12-20T10:12:41.000Z,8
2022-12-20T10:13:57.526Z,7.3
2022-12-20T10:15:13.000Z,4.7
2022-12-20T10:16:29.000Z,5.6
2022-12-20T10:17:45.000Z,5.9
2022-12-20T10:19:02.000Z,3.8
2022-12-20T10:20:18.000Z,6.6
2022-12-20T10:21:34.000Z,5.1
2022-12-20T10:22:50.000Z,5.5
2022-12-20T10:24:07.000Z,7.9
2022-12-20T10:25:23.000Z,6.7
2022-12-20T10:26:39.000Z,4.8
2022-12-20T10:27:55.000Z,4.9
2022-12-20T10:29:11.000Z,5
2022-12-20T10:30:27.000Z,4.9
2022-12-20T10:31:43.823Z,2.8
2022-12-20T10:32:59.000Z,6.2
2022-12-20T10:34:16.000Z,5
2022-12-20T10:35:32.000Z,4.5
2022-12-20T10:36:48.000Z,3.2
2022-12-20T10:38:04.000Z,6.5
2022-12-20T10:39:20.000Z,5
2022-12-20T10:40:37.000Z,7.1
2022-12-20T10:41:53.000Z,5.3
2022-12-20T10:43:09.000Z,4.3
2022-12-20T10:44:25.000Z,5.2
2022-12-20T10:45:41.000Z,4.7
2022-12-20T10:46:57.000Z,3.6
2022-12-20T10:48:13.000Z,4.9
2022-12-20T10:49:29.000Z,3.5
2022-12-20T10:50:46.000Z,4.7
2022-12-20T10:52:02.000Z,2.7
2022-12-20T10:53:18.000Z,3
2022-12-20T10:54:34.000Z,5.5
2022-12-20T10:55:51.000Z,2.8
2022-12-20T10:58:23.000Z,4.5
2022-12-20T10:59:39.000Z,4.6
2022-12-20T11:00:55.000Z,5.3
2022-12-20T11:02:11.459Z,4.5
2022-12-20T11:03:27.000Z,5.1
2022-12-20T11:04:43.000Z,3.9
2022-12-20T11:05:59.000Z,8.4
2022-12-20T11:07:16.370Z,4.6
2022-12-20T11:08:32.000Z,6.5
2022-12-20T11:09:48.861Z,5.1
2022-12-20T11:11:04.000Z,6.1
2022-12-20T11:12:21.000Z,4.8
2022-12-20T11:13:37.000Z,3.3
2022-12-20T11:14:53.000Z,4.5
2022-12-20T11:16:09.000Z,4.4
2022-12-20T11:17:25.000Z,5.9
2022-12-20T11:18:41.000Z,5.3
2022-12-20T11:19:57.000Z,7.3
2022-12-20T11:21:13.000Z,6.5
2022-12-20T11:22:29.000Z,8
2022-12-20T11:23:46.000Z,7.7
2022-12-20T11:25:02.000Z,3.6
2022-12-20T11:26:18.000Z,6.2
2022-12-20T11:27:34.000Z,7.2
2022-12-20T11:28:51.000Z,8.7
2022-12-20T11:30:07.000Z,6
2022-12-20T11:31:23.000Z,7.3
2022-12-20T11:32:39.000Z,3.7
2022-12-20T11:33:56.000Z,6.1
2022-12-20T11:35:11.000Z,7.2
2022-12-20T11:36:27.000Z,5.5
2022-12-20T11:37:43.000Z,6.6
2022-12-20T11:38:59.000Z,5.4
2022-12-20T11:40:16.000Z,5.1
2022-12-20T11:41:32.708Z,6.1
2022-12-20T11:42:48.000Z,3.7
2022-12-20T11:44:04.000Z,5.8
2022-12-20T11:45:21.000Z,5
2022-12-20T11:46:37.630Z,5.5
2022-12-20T11:47:53.000Z,9
2022-12-20T11:49:09.000Z,5
2022-12-20T11:50:26.000Z,5.2
2022-12-20T11:51:41.000Z,6.5
2022-12-20T11:52:57.000Z,8.7
2022-12-20T11:54:13.000Z,4.7
2022-12-20T11:55:30.000Z,3.3
2022-12-20T11:56:46.000Z,4.5
2022-12-20T11:58:02.000Z,4.2
2022-12-20T11:59:17.000Z,5.4
2022-12-20T12:00:34.253Z,5.4
2022-12-20T12:01:50.000Z,8.6
2022-12-20T12:03:06.000Z,3.7
2022-12-20T12:04:22.000Z,6.4
2022-12-20T12:05:38.000Z,4.9
2022-12-20T12:06:55.000Z,5.3
2022-12-20T12:08:11.000Z,7
2022-12-20T12:09:27.000Z,5.7
2022-12-20T12:10:43.000Z,3.6
2022-12-20T12:12:00.000Z,2.8
2022-12-20T12:13:16.574Z,11.8
2022-12-20T12:14:32.819Z,9.4
2022-12-20T12:15:47.000Z,5.6
2022-12-20T12:17:04.000Z,6.4
2022-12-20T12:18:20.000Z,7.6
2022-12-20T12:19:36.000Z,8.5
2022-12-20T12:20:52.000Z,7
2022-12-20T12:22:08.000Z,7.1
2022-12-20T12:23:25.000Z,3.4
2022-12-20T12:24:41.000Z,5
2022-12-20T12:25:57.000Z,7.5
2022-12-20T12:27:14.167Z,4.3
2022-12-20T12:28:30.000Z,5.7
2022-12-20T12:29:46.000Z,5.9
2022-12-20T12:31:02.849Z,7
2022-12-20T12:32:17.000Z,4.1
2022-12-20T12:33:34.000Z,5.7
2022-12-20T12:34:50.000Z,7.6
2022-12-20T12:36:06.000Z,5.5
2022-12-20T12:37:23.045Z,5.9
2022-12-20T12:38:39.000Z,5.7
2022-12-20T12:39:55.513Z,5.6
2022-12-20T12:41:11.000Z,6.7
2022-12-20T12:42:27.000Z,7
2022-12-20T12:43:43.000Z,4.3
2022-12-20T12:45:00.000Z,5.4
2022-12-20T12:46:16.000Z,5.5
2022-12-20T12:47:32.000Z,5.8
2022-12-20T12:48:48.149Z,3
2022-12-20T12:50:04.000Z,8.5
2022-12-20T12:51:20.000Z,4.6
2022-12-20T12:52:36.000Z,7
2022-12-20T12:53:52.000Z,7.1
2022-12-20T12:55:09.000Z,6.2
2022-12-20T12:56:25.000Z,4.3
2022-12-20T12:57:41.000Z,6.2
2022-12-20T12:58:57.000Z,5.7
2022-12-20T13:00:14.000Z,5.6
2022-12-20T13:01:30.000Z,5.5
2022-12-20T13:02:46.000Z,6.7
2022-12-20T13:04:02.000Z,7.6
2022-12-20T13:06:34.000Z,6.5
2022-12-20T13:07:50.000Z,6
2022-12-20T13:09:06.000Z,3.9
2022-12-20T13:10:22.000Z,4
2022-12-20T13:11:39.368Z,7
2022-12-20T13:12:55.000Z,5.3
2022-12-20T13:14:11.000Z,6.2
2022-12-20T13:15:27.000Z,6.9
2022-12-20T13:18:00.000Z,7.1
2022-12-20T13:19:16.000Z,5
2022-12-20T13:20:32.000Z,7.9
2022-12-20T13:21:48.000Z,6.2
2022-12-20T13:23:04.000Z,7.1
2022-12-20T13:24:20.000Z,6.8
2022-12-20T13:25:36.000Z,19.1
2022-12-20T13:26:52.000Z,5.6
2022-12-20T13:28:09.000Z,5.8
2022-12-20T13:29:25.649Z,3.9
2022-12-20T13:30:41.000Z,5.8
2022-12-20T13:31:57.000Z,6
2022-12-20T13:33:14.000Z,5.5
2022-12-20T13:34:30.000Z,5.1
2022-12-20T13:35:46.000Z,9
2022-12-20T13:37:02.000Z,5.7
2022-12-20T13:38:18.000Z,4.8
2022-12-20T13:39:34.000Z,6.2
2022-12-20T13:40:50.000Z,4.9
2022-12-20T13:42:07.001Z,11
2022-12-20T13:43:22.000Z,6.3
2022-12-20T13:44:39.000Z,6.1
2022-12-20T13:45:55.000Z,4.9
2022-12-20T13:47:11.000Z,6.4
2022-12-20T13:48:27.000Z,6.6
2022-12-20T13:49:44.000Z,6.8
2022-12-20T13:51:00.000Z,5.9
2022-12-20T13:52:16.000Z,7
2022-12-20T13:53:32.000Z,5.4
2022-12-20T13:54:48.000Z,4.3
2022-12-20T13:56:04.000Z,6.9
2022-12-20T13:57:20.000Z,5.5
2022-12-20T13:58:36.000Z,4.9
2022-12-20T13:59:53.000Z,7.7
2022-12-20T14:01:09.000Z,3.4
2022-12-20T14:02:25.000Z,5.3
2022-12-20T14:03:41.967Z,5.1
2022-12-20T14:04:57.000Z,6.9
2022-12-20T14:06:14.440Z,5
2022-12-20T14:07:30.000Z,4.8
2022-12-20T14:08:46.000Z,6.3
2022-12-20T14:10:02.000Z,5.4
2022-12-20T14:11:18.000Z,8.2
2022-12-20T14:12:34.000Z,6.6
2022-12-20T14:13:50.000Z,4.9
2022-12-20T14:15:06.000Z,6.4
2022-12-20T14:16:23.000Z,6.8
2022-12-20T14:17:39.000Z,4.6
2022-12-20T14:18:55.000Z,9.6
2022-12-20T14:20:11.000Z,5.2
2022-12-20T14:21:28.000Z,4.5
2022-12-20T14:22:44.000Z,6.4
2022-12-20T14:24:00.000Z,7.3
2022-12-20T14:25:16.000Z,4.9
2022-12-20T14:26:32.000Z,6.8
2022-12-20T14:27:48.000Z,6.1
2022-12-20T14:29:04.000Z,4.4
2022-12-20T14:30:20.000Z,7.8
2022-12-20T14:31:36.000Z,5.3
2022-12-20T14:32:53.395Z,3.9
2022-12-20T14:34:09.000Z,6.1
2022-12-20T14:35:25.000Z,6.4
2022-12-20T14:36:41.000Z,6
2022-12-20T14:37:58.000Z,3.1
2022-12-20T14:39:14.000Z,7.3
2022-12-20T14:40:30.000Z,7.3
2022-12-20T14:41:46.000Z,3.8
2022-12-20T14:43:02.000Z,4.5
2022-12-20T14:44:18.507Z,5
2022-12-20T14:45:34.733Z,6.9
2022-12-20T14:46:50.000Z,4
2022-12-20T14:48:06.000Z,5.9
2022-12-20T14:49:23.000Z,5.1
2022-12-20T14:50:39.000Z,7.9
2022-12-20T14:51:55.000Z,8.4
2022-12-20T14:53:11.000Z,5.7
2022-12-20T14:54:28.000Z,8.6
2022-12-20T14:55:44.000Z,6.4
2022-12-20T14:57:00.840Z,7.5
2022-12-20T14:58:16.000Z,5.7
2022-12-20T14:59:33.000Z,9.4
2022-12-20T15:00:48.000Z,4
2022-12-20T15:02:04.000Z,7.5
2022-12-20T15:03:20.000Z,6.5
2022-12-20T15:04:36.000Z,8
2022-12-20T15:05:53.458Z,5.4
2022-12-20T15:07:09.000Z,5.2
2022-12-20T15:08:25.000Z,10.6
2022-12-20T15:09:41.000Z,7.1
2022-12-20T15:10:58.000Z,7.6
2022-12-20T15:12:14.000Z,5.3
2022-12-20T15:13:30.000Z,9.4
2022-12-20T15:14:46.000Z,6.5
2022-12-20T15:16:03.000Z,6.9
2022-12-20T15:17:18.000Z,9.5
2022-12-20T15:18:34.000Z,6.5
2022-12-20T15:19:50.000Z,8.5
2022-12-20T15:21:07.000Z,5.5
2022-12-20T15:22:23.000Z,5.9
2022-12-20T15:23:39.757Z,10.7
2022-12-20T15:24:55.000Z,11.8
2022-12-20T15:26:11.000Z,8.5
2022-12-20T15:27:28.000Z,7.8
2022-12-20T15:28:44.000Z,8.4
2022-12-20T15:30:00.000Z,7
2022-12-20T15:31:16.000Z,8.1
2022-12-20T15:32:33.000Z,10.1
2022-12-20T15:33:48.000Z,11.9
2022-12-20T15:35:04.000Z,11.7
2022-12-20T15:36:20.000Z,10.8
2022-12-20T15:37:37.354Z,11.2
2022-12-20T15:38:53.000Z,10.6
2022-12-20T15:40:09.000Z,7.4
2022-12-20T15:41:25.000Z,10.1
2022-12-20T15:42:42.000Z,11
2022-12-20T15:43:58.000Z,12.1
2022-12-20T15:45:14.000Z,9.5
2022-12-20T15:46:30.000Z,10.6
2022-12-20T15:47:46.000Z,8.9
2022-12-20T15:49:03.000Z,11.1
2022-12-20T15:50:18.000Z,9.9
2022-12-20T15:51:34.000Z,7
2022-12-20T15:52:51.000Z,9.3
2022-12-20T15:54:07.000Z,10
2022-12-20T15:55:23.000Z,11.8
2022-12-20T15:56:39.000Z,12.2
2022-12-20T15:57:56.000Z,10.3
2022-12-20T15:59:12.000Z,8.2
2022-12-20T16:00:28.000Z,9.2
2022-12-20T16:03:01.000Z,9.7
2022-12-20T16:04:17.000Z,11.2
2022-12-20T16:05:33.000Z,11.2
2022-12-20T16:06:49.000Z,7.6
2022-12-20T16:08:05.000Z,9.7
2022-12-20T16:09:21.000Z,10.6
2022-12-20T16:10:38.000Z,13.8
2022-12-20T16:11:54.000Z,13
2022-12-20T16:13:10.000Z,8.9
2022-12-20T16:14:26.250Z,18
2022-12-20T16:15:42.000Z,7.7
2022-12-20T16:16:58.000Z,7.8
2022-12-20T16:18:14.000Z,9.2
2022-12-20T16:19:31.000Z,7.7
2022-12-20T16:20:47.000Z,8.2
2022-12-20T16:22:03.000Z,10.3
2022-12-20T16:23:20.000Z,10.8
2022-12-20T16:24:36.000Z,12
2022-12-20T16:25:52.000Z,10.7
2022-12-20T16:27:08.000Z,8.6
2022-12-20T16:28:25.000Z,10.2
2022-12-20T16:29:41.000Z,14.9
2022-12-20T16:30:56.000Z,10.2
2022-12-20T16:32:13.000Z,9.5
2022-12-20T16:33:29.000Z,12.9
2022-12-20T16:34:45.000Z,9.8
2022-12-20T16:36:01.000Z,12.4
2022-12-20T16:37:18.000Z,16.7
2022-12-20T16:38:34.000Z,16.1
2022-12-20T16:39:50.000Z,11.2
2022-12-20T16:41:07.000Z,9.5
2022-12-20T16:42:23.000Z,10.5
2022-12-20T16:43:39.000Z,9.7
2022-12-20T16:44:55.000Z,12.7
2022-12-20T16:46:12.000Z,19.8
2022-12-20T16:47:27.000Z,10.8
2022-12-20T16:48:43.000Z,12.4
2022-12-20T16:50:00.000Z,17
2022-12-20T16:51:16.000Z,13.3
2022-12-20T16:52:32.000Z,16
2022-12-20T16:53:48.000Z,10.1
2022-12-20T16:55:05.000Z,13.5
2022-12-20T16:56:21.000Z,14.6
2022-12-20T16:57:38.049Z,11.9
2022-12-20T16:58:54.000Z,18
2022-12-20T17:00:10.000Z,13.4
2022-12-20T17:01:26.000Z,10.9
2022-12-20T17:02:42.000Z,14
2022-12-20T17:03:58.000Z,15.8
2022-12-20T17:05:14.772Z,11.7
2022-12-20T17:06:30.000Z,11.1
2022-12-20T17:07:47.000Z,13.6
2022-12-20T17:09:03.000Z,18.7
2022-12-20T17:10:19.000Z,12
2022-12-20T17:11:35.000Z,11.2
2022-12-20T17:12:52.000Z,14.2
2022-12-20T17:14:08.000Z,12
2022-12-20T17:15:24.000Z,17.5
2022-12-20T17:16:41.000Z,11.8
2022-12-20T17:17:57.000Z,10.6
2022-12-20T17:19:13.000Z,10.4
2022-12-20T17:20:29.000Z,17.7
2022-12-20T17:24:17.000Z,12.9
2022-12-20T17:25:34.000Z,12.4
2022-12-20T17:26:50.000Z,12
2022-12-20T17:28:06.000Z,13.4
2022-12-20T17:29:23.000Z,14.7
2022-12-20T17:30:39.563Z,15.2
2022-12-20T17:31:55.000Z,10.1
2022-12-20T17:33:11.000Z,13.5
2022-12-20T17:34:28.000Z,13.3
2022-12-20T17:35:44.000Z,15
2022-12-20T17:36:59.000Z,12.3
2022-12-20T17:38:16.000Z,12.3
2022-12-20T17:39:32.000Z,14.6
2022-12-20T17:40:48.000Z,12
2022-12-20T17:42:04.000Z,12.9
2022-12-20T17:43:21.000Z,14.5
2022-12-20T17:44:37.000Z,13
2022-12-20T17:45:53.000Z,15.6